Time;durP1;ratioP1;P1;durP2;ratioP2;P2;SDS_P1;SDS_P2;PMS_P1;PMS_P2;Temp;Humidity;BMP_temperature;BMP_pressure;BME280_temperature;BME280_humidity;BME280_pressure;Samples;Min_cycle;Max_cycle;Signal;HPM_P1;HPM_P2
2022/07/08 00:02:13;;;;;;;12.45;4.05;;;15.80;99.90;;;;;;5006056;28;20030;-61
2022/07/08 00:04:39;;;;;;;7.55;3.50;;;15.80;99.90;;;;;;5005912;28;20363;-59
2022/07/08 00:07:04;;;;;;;8.23;4.00;;;15.80;99.90;;;;;;4990443;28;20033;-59
2022/07/08 00:09:30;;;;;;;8.88;3.50;;;15.80;99.90;;;;;;5003929;28;20140;-59
2022/07/08 00:11:57;;;;;;;7.53;3.92;;;15.80;99.90;;;;;;5011596;28;20391;-60
2022/07/08 00:14:23;;;;;;;7.38;3.97;;;15.80;99.90;;;;;;5009097;28;20029;-59
2022/07/08 00:16:49;;;;;;;11.30;4.00;;;15.80;99.90;;;;;;5011164;28;20045;-59
2022/07/08 00:19:16;;;;;;;5.68;4.22;;;15.80;99.90;;;;;;5009811;28;20041;-61
2022/07/08 00:21:44;;;;;;;10.43;3.90;;;15.80;99.90;;;;;;5010591;28;20496;-60
2022/07/08 00:24:13;;;;;;;6.88;3.97;;;15.70;99.90;;;;;;5009440;28;20030;-59
2022/07/08 00:26:40;;;;;;;4.95;3.67;;;15.80;99.90;;;;;;5010620;28;20030;-59
2022/07/08 00:29:06;;;;;;;6.30;3.90;;;15.80;99.90;;;;;;5010673;28;20063;-61
2022/07/08 00:31:32;;;;;;;9.93;4.30;;;15.70;99.90;;;;;;5008235;28;20037;-59
2022/07/08 00:33:58;;;;;;;5.95;3.70;;;15.70;99.90;;;;;;5011379;28;20026;-59
2022/07/08 00:36:24;;;;;;;7.57;3.92;;;15.60;99.90;;;;;;5008262;28;20034;-59
2022/07/08 00:38:50;;;;;;;6.22;3.92;;;15.60;99.90;;;;;;5010871;28;20466;-59
2022/07/08 00:41:15;;;;;;;6.00;3.78;;;15.60;99.90;;;;;;5009504;28;20056;-59
2022/07/08 00:43:44;;;;;;;6.25;3.63;;;15.60;99.90;;;;;;5011247;28;20044;-60
2022/07/08 00:46:11;;;;;;;6.63;4.13;;;15.60;99.90;;;;;;5009090;28;20105;-58
2022/07/08 00:48:38;;;;;;;7.57;3.60;;;15.60;99.90;;;;;;5010350;28;20141;-59
2022/07/08 00:51:07;;;;;;;6.90;4.03;;;15.60;99.90;;;;;;5008145;28;20084;-61
2022/07/08 00:53:33;;;;;;;11.20;4.40;;;15.60;99.90;;;;;;5010021;28;20061;-60
2022/07/08 00:55:59;;;;;;;7.65;3.95;;;15.60;99.90;;;;;;5007699;28;20046;-59
2022/07/08 00:58:26;;;;;;;4.65;3.63;;;15.50;99.90;;;;;;5010417;28;20026;-60
2022/07/08 01:00:54;;;;;;;6.25;3.60;;;15.50;99.90;;;;;;5008509;28;20065;-59
2022/07/08 01:03:21;;;;;;;8.25;3.83;;;15.50;99.90;;;;;;5010022;28;20038;-58
2022/07/08 01:05:46;;;;;;;7.68;2.90;;;15.50;99.90;;;;;;5010167;28;20048;-59
2022/07/08 01:08:12;;;;;;;12.15;2.78;;;15.50;99.90;;;;;;5008917;28;20037;-59
2022/07/08 01:10:39;;;;;;;4.25;2.50;;;15.40;99.90;;;;;;5009480;28;21265;-59
2022/07/08 01:13:05;;;;;;;6.30;2.20;;;15.30;99.90;;;;;;5009307;28;20038;-61
2022/07/08 01:15:32;;;;;;;7.88;2.40;;;15.20;99.90;;;;;;5009409;28;20562;-59
2022/07/08 01:17:58;;;;;;;8.60;2.30;;;15.20;99.90;;;;;;5009626;28;20034;-59
2022/07/08 01:20:23;;;;;;;12.32;2.90;;;15.10;99.90;;;;;;5006109;28;20034;-59
2022/07/08 01:22:49;;;;;;;7.95;2.22;;;15.00;99.90;;;;;;5011206;28;20030;-59
2022/07/08 01:25:15;;;;;;;6.43;2.80;;;14.90;99.90;;;;;;5001039;28;20042;-59
2022/07/08 01:27:41;;;;;;;7.82;2.30;;;14.90;99.90;;;;;;5010267;28;20053;-59
2022/07/08 01:30:08;;;;;;;10.20;2.45;;;14.80;99.90;;;;;;5005999;28;20072;-61
2022/07/08 01:32:36;;;;;;;8.45;2.42;;;14.70;99.90;;;;;;5009597;28;20096;-59
2022/07/08 01:35:02;;;;;;;10.10;2.33;;;14.60;99.90;;;;;;4997658;28;20117;-59
2022/07/08 01:37:28;;;;;;;5.95;2.55;;;14.60;99.90;;;;;;5009061;28;20022;-58
2022/07/08 01:39:53;;;;;;;9.18;2.53;;;14.40;99.90;;;;;;5008759;28;20127;-59
2022/07/08 01:42:19;;;;;;;7.95;2.45;;;14.40;99.90;;;;;;5008013;28;20033;-59
2022/07/08 01:44:45;;;;;;;9.07;2.60;;;14.30;99.90;;;;;;5009000;28;20052;-59
2022/07/08 01:47:10;;;;;;;9.10;2.40;;;14.20;99.90;;;;;;5009568;28;20042;-59
2022/07/08 01:49:36;;;;;;;9.38;2.50;;;14.30;99.90;;;;;;5007141;28;20033;-59
2022/07/08 01:52:04;;;;;;;7.80;2.10;;;14.30;99.90;;;;;;5009944;28;20033;-59
2022/07/08 01:54:30;;;;;;;7.25;2.30;;;14.30;99.90;;;;;;5005956;28;20552;-59
2022/07/08 01:57:13;;;;;;;5.35;2.20;;;14.30;99.90;;;;;;5004759;28;20033;-59
2022/07/08 01:59:43;;;;;;;8.77;2.53;;;14.40;99.90;;;;;;5005895;28;20046;-58
2022/07/08 02:02:09;;;;;;;15.07;2.67;;;14.40;99.90;;;;;;5007844;28;20537;-61
2022/07/08 02:04:35;;;;;;;10.57;3.17;;;14.40;99.90;;;;;;5007015;28;20541;-59
2022/07/08 02:07:01;;;;;;;9.18;2.50;;;14.40;99.90;;;;;;5007792;28;20030;-59
2022/07/08 02:09:27;;;;;;;9.23;2.60;;;14.40;99.90;;;;;;5008131;28;20038;-59
2022/07/08 02:14:36;;;;;;;8.00;2.13;;;14.40;99.90;;;;;;5008357;28;20438;-59
2022/07/08 02:17:03;;;;;;;6.57;2.65;;;14.40;99.90;;;;;;5007810;28;20030;-59
2022/07/08 02:19:29;;;;;;;10.35;2.40;;;14.30;99.90;;;;;;5005604;28;20046;-58
2022/07/08 02:21:55;;;;;;;4.82;2.17;;;14.30;99.90;;;;;;5003679;28;20026;-59
2022/07/08 02:24:21;;;;;;;6.60;2.58;;;14.30;99.90;;;;;;5008878;28;20112;-59
2022/07/08 02:26:47;;;;;;;8.45;2.30;;;14.30;99.90;;;;;;5005333;28;20073;-59
2022/07/08 02:29:12;;;;;;;9.38;2.50;;;14.30;99.90;;;;;;4998612;28;20041;-59
2022/07/08 02:31:38;;;;;;;7.47;2.10;;;14.30;99.90;;;;;;4998141;28;20022;-59
2022/07/08 02:34:04;;;;;;;12.95;2.20;;;14.30;99.90;;;;;;5008394;28;20022;-59
2022/07/08 02:36:29;;;;;;;7.40;2.20;;;14.30;99.90;;;;;;5006159;28;20033;-58
2022/07/08 02:38:55;;;;;;;9.65;2.47;;;14.30;99.90;;;;;;5008219;28;20089;-59
2022/07/08 02:41:21;;;;;;;8.88;2.45;;;14.30;99.90;;;;;;5006925;28;20128;-59
2022/07/08 02:43:47;;;;;;;5.88;2.30;;;14.30;99.90;;;;;;5009781;28;20049;-59
2022/07/08 02:46:13;;;;;;;9.50;2.67;;;14.30;99.90;;;;;;5007129;28;20037;-59
2022/07/08 02:48:39;;;;;;;6.13;2.35;;;14.30;99.90;;;;;;5004998;28;20394;-58
2022/07/08 02:51:05;;;;;;;6.20;2.30;;;14.30;99.90;;;;;;5003357;28;20045;-59
2022/07/08 02:53:30;;;;;;;6.38;2.25;;;14.20;99.90;;;;;;5007076;28;20026;-59
2022/07/08 02:55:57;;;;;;;7.25;2.00;;;14.20;99.90;;;;;;5005724;28;20050;-59
2022/07/08 02:58:23;;;;;;;6.30;2.13;;;14.30;99.90;;;;;;5007100;28;20040;-58
2022/07/08 03:00:49;;;;;;;7.13;2.35;;;14.30;99.90;;;;;;5001570;28;21208;-59
2022/07/08 03:03:14;;;;;;;8.20;2.00;;;14.30;99.90;;;;;;5007575;28;20117;-59
2022/07/08 03:05:40;;;;;;;6.65;2.25;;;14.20;99.90;;;;;;5007582;28;20038;-59
2022/07/08 03:08:06;;;;;;;9.10;2.20;;;14.20;99.90;;;;;;5005784;28;20029;-59
2022/07/08 03:10:32;;;;;;;11.48;2.50;;;14.20;99.90;;;;;;5006889;28;20056;-59
2022/07/08 03:12:58;;;;;;;14.15;2.10;;;14.20;99.90;;;;;;5005230;28;20036;-60
2022/07/08 03:15:25;;;;;;;7.35;2.47;;;14.10;99.90;;;;;;5007072;28;20026;-59
2022/07/08 03:17:51;;;;;;;9.05;2.25;;;14.10;99.90;;;;;;5007538;28;20030;-59
2022/07/08 03:20:18;;;;;;;9.90;2.25;;;14.10;99.90;;;;;;5003103;28;20112;-59
2022/07/08 03:22:43;;;;;;;8.15;2.13;;;14.00;99.90;;;;;;5022584;28;20442;-59
2022/07/08 03:25:09;;;;;;;10.50;2.10;;;14.00;99.90;;;;;;5003741;28;20091;-60
2022/07/08 03:27:35;;;;;;;3.90;2.05;;;14.00;99.90;;;;;;4997619;28;20108;-59
2022/07/08 03:30:00;;;;;;;9.98;2.20;;;14.00;99.90;;;;;;5008147;28;20038;-59
2022/07/08 03:32:26;;;;;;;8.20;2.00;;;14.00;99.90;;;;;;5006886;28;20061;-59
2022/07/08 03:34:52;;;;;;;12.13;2.58;;;14.00;99.90;;;;;;5006900;28;20045;-59
2022/07/08 03:37:18;;;;;;;8.57;1.95;;;14.00;99.90;;;;;;5002595;28;20026;-59
2022/07/08 03:39:43;;;;;;;6.07;2.10;;;13.90;99.90;;;;;;5024205;28;20053;-59
2022/07/08 03:42:09;;;;;;;9.68;2.08;;;13.90;99.90;;;;;;5005500;28;20017;-58
2022/07/08 03:44:35;;;;;;;7.30;1.80;;;13.80;99.90;;;;;;5010069;28;20033;-59
2022/07/08 03:47:01;;;;;;;7.22;1.85;;;13.70;99.90;;;;;;5009033;28;20034;-61
2022/07/08 03:49:26;;;;;;;3.85;1.48;;;13.70;99.90;;;;;;5006748;28;20049;-59
2022/07/08 03:51:53;;;;;;;8.10;1.60;;;13.70;99.90;;;;;;5010678;28;20462;-59
2022/07/08 03:54:19;;;;;;;6.60;1.85;;;13.60;99.90;;;;;;5010724;28;20137;-59
2022/07/08 03:56:45;;;;;;;5.80;1.67;;;13.50;99.90;;;;;;5009428;28;20149;-59
2022/07/08 03:59:10;;;;;;;4.80;1.48;;;13.50;99.90;;;;;;5011752;28;20122;-59
2022/07/08 04:01:36;;;;;;;5.32;1.88;;;13.60;99.90;;;;;;4999926;28;20126;-60
2022/07/08 04:04:02;;;;;;;4.78;1.63;;;13.50;99.90;;;;;;5012074;28;20113;-60
2022/07/08 04:06:28;;;;;;;7.65;1.88;;;13.40;99.90;;;;;;5011168;28;20530;-59
2022/07/08 04:08:53;;;;;;;7.82;1.67;;;13.40;99.90;;;;;;5009902;28;20042;-60
2022/07/08 04:11:19;;;;;;;7.07;1.88;;;13.40;99.90;;;;;;5009915;28;20030;-59
2022/07/08 04:13:45;;;;;;;6.18;1.70;;;13.40;99.90;;;;;;5008637;28;20038;-60
2022/07/08 04:16:13;;;;;;;10.48;1.70;;;13.40;99.90;;;;;;5010213;28;20526;-59
2022/07/08 04:18:40;;;;;;;8.25;1.90;;;13.40;99.90;;;;;;5010261;28;20072;-59
2022/07/08 04:21:06;;;;;;;6.20;2.47;;;13.50;99.90;;;;;;5012322;28;20046;-60
2022/07/08 04:23:32;;;;;;;4.43;1.73;;;13.50;99.90;;;;;;5010349;28;20474;-61
2022/07/08 04:25:58;;;;;;;4.10;1.60;;;13.60;99.90;;;;;;5008180;28;20030;-60
2022/07/08 04:28:24;;;;;;;5.72;1.70;;;13.70;99.90;;;;;;5010628;28;20399;-60
2022/07/08 04:30:49;;;;;;;7.35;1.95;;;13.80;99.90;;;;;;5006213;28;20033;-60
2022/07/08 04:33:15;;;;;;;6.38;1.60;;;13.90;99.90;;;;;;5010934;28;20467;-61
2022/07/08 04:35:41;;;;;;;6.47;2.08;;;14.00;99.90;;;;;;5009484;28;20496;-60
2022/07/08 04:38:07;;;;;;;9.13;1.58;;;14.10;99.90;;;;;;5007939;28;20494;-60
2022/07/08 04:40:33;;;;;;;11.02;1.80;;;14.30;99.90;;;;;;5010040;28;20125;-59
2022/07/08 04:42:58;;;;;;;3.75;1.25;;;14.40;99.90;;;;;;5011982;28;20092;-60
2022/07/08 04:45:24;;;;;;;14.23;1.90;;;14.60;99.90;;;;;;5008247;28;20060;-60
2022/07/08 04:47:51;;;;;;;4.82;1.40;;;14.70;99.90;;;;;;5010872;28;20045;-59
2022/07/08 04:50:17;;;;;;;9.82;2.03;;;14.80;99.90;;;;;;5011762;28;20463;-61
2022/07/08 04:52:42;;;;;;;5.22;1.55;;;14.80;99.90;;;;;;5010291;28;20026;-60
2022/07/08 04:55:27;;;;;;;8.48;1.65;;;14.90;99.90;;;;;;5011148;28;20052;-60
2022/07/08 04:58:00;;;;;;;6.70;1.98;;;15.00;99.90;;;;;;5009458;28;20382;-60
2022/07/08 05:00:26;;;;;;;10.65;1.80;;;15.00;99.90;;;;;;5007222;28;20046;-60
2022/07/08 05:02:52;;;;;;;8.30;1.80;;;14.80;99.90;;;;;;5011656;28;20648;-59
2022/07/08 05:05:19;;;;;;;8.45;2.08;;;14.60;99.90;;;;;;5009959;28;20080;-60
2022/07/08 05:07:47;;;;;;;5.15;1.90;;;14.50;99.90;;;;;;5011792;28;20029;-60
2022/07/08 05:10:14;;;;;;;7.35;1.63;;;14.40;99.90;;;;;;5010718;28;20037;-59
2022/07/08 05:12:42;;;;;;;4.43;2.05;;;14.40;99.90;;;;;;5010278;28;20029;-59
2022/07/08 05:15:08;;;;;;;13.13;2.08;;;14.40;99.90;;;;;;5008094;28;20058;-60
2022/07/08 05:17:34;;;;;;;5.22;1.70;;;14.30;99.90;;;;;;5008817;28;20032;-60
2022/07/08 05:20:00;;;;;;;8.40;1.50;;;14.30;99.90;;;;;;5007396;28;20033;-60
2022/07/08 05:22:25;;;;;;;6.18;1.90;;;14.30;99.90;;;;;;5009955;28;20041;-59
2022/07/08 05:24:51;;;;;;;9.95;2.47;;;14.40;99.90;;;;;;5009660;28;20041;-60
2022/07/08 05:27:17;;;;;;;12.85;2.35;;;14.50;99.90;;;;;;5010142;28;20057;-61
2022/07/08 05:29:42;;;;;;;6.05;2.05;;;14.50;99.90;;;;;;5008879;28;20033;-59
2022/07/08 05:32:08;;;;;;;7.30;1.80;;;14.60;99.90;;;;;;5009194;28;20471;-60
2022/07/08 05:34:34;;;;;;;10.85;2.50;;;14.70;99.90;;;;;;5010028;28;20061;-60
2022/07/08 05:37:00;;;;;;;5.85;1.90;;;14.70;99.90;;;;;;5009769;28;20026;-60
2022/07/08 05:39:26;;;;;;;9.65;2.60;;;14.70;99.90;;;;;;5010247;28;20037;-60
2022/07/08 05:41:52;;;;;;;7.72;1.88;;;14.80;99.90;;;;;;5009851;28;20077;-60
2022/07/08 05:44:17;;;;;;;8.75;1.80;;;14.90;99.90;;;;;;5009485;28;20461;-62
2022/07/08 05:46:43;;;;;;;6.05;1.80;;;14.90;99.90;;;;;;5008640;28;20390;-60
2022/07/08 05:49:09;;;;;;;8.32;2.40;;;14.90;99.90;;;;;;5009848;28;20458;-60
2022/07/08 05:51:35;;;;;;;8.45;2.20;;;14.90;99.90;;;;;;5008566;28;20037;-61
2022/07/08 05:54:01;;;;;;;5.75;1.85;;;15.00;99.90;;;;;;5010017;28;20139;-60
2022/07/08 05:56:26;;;;;;;9.40;2.08;;;15.00;99.90;;;;;;5008786;28;20038;-60
2022/07/08 05:58:52;;;;;;;12.13;2.22;;;15.10;99.90;;;;;;5009286;28;20034;-60
2022/07/08 06:01:18;;;;;;;5.15;1.80;;;15.20;99.90;;;;;;5008743;28;20049;-60
2022/07/08 06:03:43;;;;;;;7.55;1.90;;;15.40;99.90;;;;;;5008928;28;20837;-60
2022/07/08 06:06:09;;;;;;;9.98;2.15;;;15.60;99.90;;;;;;5009296;28;20441;-60
2022/07/08 06:08:35;;;;;;;5.95;2.13;;;15.80;99.90;;;;;;5008795;28;20030;-60
2022/07/08 06:11:01;;;;;;;7.00;2.00;;;16.00;99.90;;;;;;5009350;28;20048;-61
2022/07/08 06:13:27;;;;;;;7.68;1.63;;;16.20;99.90;;;;;;5009289;28;20038;-60
2022/07/08 06:15:53;;;;;;;8.60;2.10;;;16.30;99.90;;;;;;5006980;28;20113;-62
2022/07/08 06:18:19;;;;;;;6.75;1.77;;;16.40;99.90;;;;;;5009368;28;20473;-63
2022/07/08 06:20:45;;;;;;;6.22;1.80;;;16.40;99.90;;;;;;5008474;28;20596;-61
2022/07/08 06:23:10;;;;;;;11.48;1.95;;;16.30;99.90;;;;;;5009324;28;20221;-61
2022/07/08 06:25:36;;;;;;;10.63;2.00;;;16.40;99.90;;;;;;5008456;28;20367;-61
2022/07/08 06:28:02;;;;;;;5.75;2.03;;;16.40;99.90;;;;;;5009059;28;20041;-60
2022/07/08 06:30:28;;;;;;;7.88;1.92;;;16.30;99.90;;;;;;5007930;28;20045;-61
2022/07/08 06:32:54;;;;;;;12.50;2.17;;;16.20;99.90;;;;;;5004332;28;20149;-61
2022/07/08 06:35:20;;;;;;;8.45;1.73;;;16.20;99.90;;;;;;4998526;28;20088;-62
2022/07/08 06:37:45;;;;;;;11.30;2.38;;;16.10;99.90;;;;;;5006220;28;20116;-62
2022/07/08 06:40:11;;;;;;;11.25;1.90;;;16.10;99.90;;;;;;5007693;28;20497;-61
2022/07/08 06:42:37;;;;;;;10.32;2.20;;;16.10;99.90;;;;;;5007019;28;20025;-62
2022/07/08 06:45:03;;;;;;;11.10;2.00;;;16.10;99.90;;;;;;5010243;28;20034;-61
2022/07/08 06:47:29;;;;;;;6.85;1.80;;;16.20;99.90;;;;;;5007771;28;20032;-61
2022/07/08 06:49:55;;;;;;;4.03;1.85;;;16.20;99.90;;;;;;5009614;28;20382;-61
2022/07/08 06:52:20;;;;;;;6.53;2.00;;;16.30;99.90;;;;;;5007759;28;20952;-61
2022/07/08 06:54:47;;;;;;;6.20;2.13;;;16.30;99.90;;;;;;5007893;28;20068;-62
2022/07/08 06:57:14;;;;;;;8.32;1.70;;;16.30;99.90;;;;;;5007238;28;20042;-61
2022/07/08 06:59:40;;;;;;;7.93;1.85;;;16.40;99.90;;;;;;5008015;28;20120;-61
2022/07/08 07:02:05;;;;;;;7.13;2.10;;;16.50;99.90;;;;;;5008975;28;20113;-62
2022/07/08 07:04:31;;;;;;;12.95;2.80;;;16.50;99.90;;;;;;5004480;28;20184;-62
2022/07/08 07:06:57;;;;;;;6.30;2.00;;;16.60;99.90;;;;;;5009162;28;20072;-61
2022/07/08 07:09:23;;;;;;;7.50;2.00;;;16.70;99.90;;;;;;5008259;28;20033;-63
2022/07/08 07:11:48;;;;;;;6.28;1.75;;;16.80;99.90;;;;;;5007859;28;20026;-61
2022/07/08 07:14:14;;;;;;;5.47;1.70;;;16.90;99.90;;;;;;5006716;28;20026;-61
2022/07/08 07:16:40;;;;;;;7.20;1.50;;;16.90;99.90;;;;;;5006087;28;20483;-61
2022/07/08 07:19:06;;;;;;;5.18;1.85;;;16.80;99.90;;;;;;5007184;28;20025;-62
2022/07/08 07:21:31;;;;;;;6.22;1.88;;;16.80;99.90;;;;;;5008146;28;20049;-61
2022/07/08 07:23:57;;;;;;;5.57;1.50;;;16.70;99.90;;;;;;5007971;28;20458;-62
2022/07/08 07:26:23;;;;;;;6.60;1.55;;;16.70;99.90;;;;;;5006315;28;20041;-65
2022/07/08 07:28:48;;;;;;;8.98;2.00;;;16.80;99.90;;;;;;5007310;28;20022;-61
2022/07/08 07:31:14;;;;;;;11.10;1.95;;;16.70;99.90;;;;;;5007772;28;20040;-62
2022/07/08 07:33:40;;;;;;;7.88;1.90;;;16.60;99.90;;;;;;5006579;28;20037;-61
2022/07/08 07:36:06;;;;;;;10.30;1.70;;;16.70;99.90;;;;;;5007756;28;20471;-62
2022/07/08 07:38:34;;;;;;;3.92;1.40;;;16.90;99.90;;;;;;5006969;28;20042;-62
2022/07/08 07:41:00;;;;;;;4.53;1.60;;;17.10;99.90;;;;;;5006358;28;20385;-61
2022/07/08 07:43:25;;;;;;;4.95;1.60;;;17.20;99.90;;;;;;5008948;28;20038;-64
2022/07/08 07:45:51;;;;;;;6.18;1.67;;;17.20;99.90;;;;;;5006986;28;20044;-62
2022/07/08 07:48:17;;;;;;;5.80;2.00;;;17.10;99.90;;;;;;5007300;28;20022;-61
2022/07/08 07:50:42;;;;;;;9.45;1.77;;;17.20;99.90;;;;;;5007191;28;20034;-62
2022/07/08 07:53:08;;;;;;;4.38;1.77;;;17.10;99.90;;;;;;5006206;28;20026;-61
2022/07/08 07:55:34;;;;;;;8.95;2.42;;;17.10;99.90;;;;;;5006902;28;20488;-62
2022/07/08 07:58:00;;;;;;;7.22;1.70;;;17.00;99.90;;;;;;5000177;28;20215;-61
2022/07/08 08:00:26;;;;;;;9.40;1.80;;;16.80;99.90;;;;;;4990478;28;20078;-66
2022/07/08 08:02:52;;;;;;;12.88;2.00;;;16.80;99.90;;;;;;5005485;28;20108;-64
2022/07/08 08:05:18;;;;;;;5.78;1.92;;;16.70;99.90;;;;;;5005711;28;20453;-61
2022/07/08 08:07:44;;;;;;;4.85;2.03;;;16.60;99.90;;;;;;5004387;28;20038;-61
2022/07/08 08:10:14;;;;;;;9.65;1.67;;;16.70;99.90;;;;;;5009089;28;20116;-61
2022/07/08 08:12:41;;;;;;;7.35;1.80;;;16.70;99.90;;;;;;5006937;28;20038;-61
2022/07/08 08:15:07;;;;;;;6.00;1.80;;;16.70;99.90;;;;;;5008812;28;20049;-62
2022/07/08 08:17:43;;;;;;;5.50;1.55;;;16.60;99.90;;;;;;5007164;28;20036;-61
2022/07/08 08:20:12;;;;;;;4.40;1.80;;;16.70;99.90;;;;;;5006377;28;20512;-60
2022/07/08 08:22:39;;;;;;;8.57;2.13;;;16.70;99.90;;;;;;5005612;28;20426;-62
2022/07/08 08:25:04;;;;;;;8.00;1.55;;;16.90;99.90;;;;;;5007375;28;20034;-62
2022/07/08 08:27:30;;;;;;;9.43;1.75;;;16.90;99.90;;;;;;5007016;28;20065;-66
2022/07/08 08:29:56;;;;;;;4.95;1.75;;;16.90;99.90;;;;;;5007369;28;20471;-63
2022/07/08 08:32:22;;;;;;;9.23;1.80;;;17.00;99.90;;;;;;5011052;28;20030;-61
2022/07/08 08:34:47;;;;;;;4.35;1.85;;;17.10;99.90;;;;;;5009381;28;20030;-61
2022/07/08 08:37:13;;;;;;;7.07;1.92;;;17.50;99.90;;;;;;5008150;28;20072;-62
2022/07/08 08:39:39;;;;;;;8.73;1.70;;;17.60;99.90;;;;;;5007495;28;20095;-62
2022/07/08 08:42:07;;;;;;;16.00;1.60;;;17.80;99.90;;;;;;5009818;28;20030;-62
2022/07/08 08:44:33;;;;;;;5.47;1.80;;;17.90;99.90;;;;;;5009488;28;20435;-63
2022/07/08 08:47:00;;;;;;;9.90;1.80;;;17.80;99.90;;;;;;5011604;28;20422;-62
2022/07/08 08:49:28;;;;;;;6.35;1.70;;;17.60;99.90;;;;;;5011239;28;20033;-62
2022/07/08 08:51:55;;;;;;;4.75;1.30;;;17.40;99.90;;;;;;5008100;28;20459;-63
2022/07/08 08:54:23;;;;;;;3.95;1.70;;;17.40;99.90;;;;;;5011195;28;20062;-62
2022/07/08 08:56:50;;;;;;;6.40;1.70;;;17.50;99.90;;;;;;4991125;28;20027;-61
2022/07/08 08:59:17;;;;;;;4.72;1.60;;;17.30;99.90;;;;;;4992119;28;20038;-62
2022/07/08 09:01:44;;;;;;;6.88;1.58;;;17.20;99.90;;;;;;5007774;28;20055;-62
2022/07/08 09:04:12;;;;;;;12.18;1.95;;;17.20;99.90;;;;;;5010544;28;20029;-62
2022/07/08 09:06:39;;;;;;;4.40;1.42;;;17.50;99.70;;;;;;5008628;28;20033;-62
2022/07/08 09:09:06;;;;;;;10.40;2.00;;;17.60;99.90;;;;;;5010472;28;20030;-61
2022/07/08 09:11:34;;;;;;;3.25;1.58;;;17.70;99.90;;;;;;5008937;28;20038;-64
2022/07/08 09:14:29;;;;;;;9.15;1.40;;;17.70;99.40;;;;;;5011149;28;20049;-64
2022/07/08 09:17:16;;;;;;;5.90;1.60;;;18.20;99.90;;;;;;5007347;28;20046;-62
2022/07/08 09:19:43;;;;;;;8.18;1.40;;;18.80;98.70;;;;;;5010349;28;20046;-61
2022/07/08 09:22:09;;;;;;;5.70;1.60;;;18.90;96.90;;;;;;5010190;28;20034;-61
2022/07/08 09:24:36;;;;;;;6.20;1.52;;;18.70;97.10;;;;;;5009406;28;20049;-63
2022/07/08 09:27:09;;;;;;;8.98;1.55;;;18.30;97.00;;;;;;5009524;28;20426;-61
2022/07/08 09:29:38;;;;;;;8.15;1.48;;;17.80;99.20;;;;;;5009415;28;20099;-62
2022/07/08 09:32:14;;;;;;;5.05;1.33;;;17.80;99.90;;;;;;5008803;28;20030;-62
2022/07/08 09:34:43;;;;;;;5.00;1.70;;;17.70;99.90;;;;;;5009414;28;20111;-61
2022/07/08 09:37:14;;;;;;;4.60;1.20;;;17.60;99.90;;;;;;5008753;28;20454;-61
2022/07/08 09:39:40;;;;;;;6.93;1.75;;;17.60;99.90;;;;;;5010219;28;20030;-61
2022/07/08 09:42:09;;;;;;;12.00;1.95;;;17.90;99.90;;;;;;5008248;28;20042;-61
2022/07/08 09:44:36;;;;;;;6.07;1.70;;;18.50;99.90;;;;;;5009058;28;20033;-65
2022/07/08 09:47:11;;;;;;;5.25;1.58;;;18.90;99.40;;;;;;5009202;28;20041;-61
2022/07/08 09:49:42;;;;;;;6.40;1.73;;;19.20;97.50;;;;;;5006398;28;20110;-62
2022/07/08 09:52:19;;;;;;;4.25;1.45;;;19.30;97.50;;;;;;5008752;28;20405;-62
2022/07/08 09:54:44;;;;;;;6.80;1.40;;;19.70;99.90;;;;;;5008467;28;20049;-62
2022/07/08 09:57:11;;;;;;;4.10;1.60;;;19.90;96.80;;;;;;5009748;28;20116;-62
2022/07/08 09:59:38;;;;;;;4.97;1.90;;;19.70;95.90;;;;;;5008873;28;20054;-63
2022/07/08 10:02:04;;;;;;;4.63;1.65;;;19.40;95.70;;;;;;5009209;28;20034;-62
2022/07/08 10:04:30;;;;;;;4.68;1.70;;;19.50;97.40;;;;;;5009088;28;20037;-62
2022/07/08 10:06:57;;;;;;;5.28;1.50;;;20.10;99.00;;;;;;5007137;28;20922;-62
2022/07/08 10:09:25;;;;;;;7.65;1.80;;;20.50;93.50;;;;;;5009979;28;20091;-62
2022/07/08 10:11:52;;;;;;;4.28;1.50;;;20.40;93.30;;;;;;5008335;28;20427;-61
2022/07/08 10:14:19;;;;;;;7.35;1.70;;;20.40;93.30;;;;;;5008951;28;20021;-62
2022/07/08 10:16:48;;;;;;;4.95;1.50;;;20.70;93.00;;;;;;5006173;28;20041;-62
2022/07/08 10:19:30;;;;;;;2.73;1.23;;;20.70;92.30;;;;;;5005912;28;20038;-61
2022/07/08 10:21:58;;;;;;;6.30;1.70;;;20.80;93.50;;;;;;5007306;28;20030;-61
2022/07/08 10:24:29;;;;;;;3.67;1.70;;;20.40;92.60;;;;;;5008710;28;20030;-61
2022/07/08 10:27:00;;;;;;;4.10;1.50;;;20.60;91.30;;;;;;5006572;28;20095;-63
2022/07/08 10:29:31;;;;;;;7.13;1.77;;;20.80;94.30;;;;;;5007378;28;20072;-62
2022/07/08 10:31:58;;;;;;;5.60;1.65;;;20.90;92.90;;;;;;5006018;28;20056;-62
2022/07/08 10:34:32;;;;;;;5.70;1.67;;;21.20;92.60;;;;;;5010169;28;20033;-61
2022/07/08 10:36:58;;;;;;;4.22;1.42;;;21.50;92.90;;;;;;5009290;28;20898;-62
2022/07/08 10:39:31;;;;;;;3.72;1.45;;;22.00;92.10;;;;;;5008213;28;20037;-61
2022/07/08 10:42:05;;;;;;;3.80;1.60;;;21.70;90.40;;;;;;5006244;28;20104;-62
2022/07/08 10:44:50;;;;;;;4.50;1.83;;;21.50;92.70;;;;;;5003521;28;20052;-63
2022/07/08 10:47:18;;;;;;;7.82;1.92;;;21.90;88.80;;;;;;5007757;28;20504;-62
2022/07/08 10:49:44;;;;;;;12.65;1.60;;;21.90;90.00;;;;;;5008908;28;20021;-61
2022/07/08 10:52:10;;;;;;;4.35;1.70;;;21.70;89.30;;;;;;5007477;28;20030;-61
2022/07/08 10:54:39;;;;;;;4.25;1.60;;;21.60;88.60;;;;;;5004923;28;20048;-63
2022/07/08 10:57:09;;;;;;;4.60;1.70;;;21.70;90.80;;;;;;5009912;28;20025;-61
2022/07/08 10:59:38;;;;;;;5.18;1.98;;;21.70;90.50;;;;;;5005790;28;20026;-62
2022/07/08 11:02:10;;;;;;;6.20;1.80;;;21.70;88.10;;;;;;5001396;28;20037;-62
2022/07/08 11:04:37;;;;;;;4.10;1.60;;;21.80;87.10;;;;;;5006258;28;20498;-64
2022/07/08 11:07:22;;;;;;;6.57;1.60;;;21.80;87.40;;;;;;5007494;28;20030;-62
2022/07/08 11:09:54;;;;;;;8.95;1.75;;;22.00;88.50;;;;;;5006416;28;20046;-62
2022/07/08 11:12:24;;;;;;;6.85;1.58;;;22.00;90.50;;;;;;5008770;28;20363;-62
2022/07/08 11:14:51;;;;;;;;;;;22.00;91.40;;;;;;5007322;28;20058;-61
2022/07/08 11:17:22;;;;;;;3.65;1.58;;;22.20;92.40;;;;;;5008902;28;20289;-62
2022/07/08 11:19:49;;;;;;;7.18;1.92;;;22.40;90.30;;;;;;5006809;28;20038;-62
2022/07/08 11:22:15;;;;;;;6.10;1.70;;;22.60;87.70;;;;;;5003776;28;20543;-62
2022/07/08 11:24:43;;;;;;;6.38;1.67;;;22.60;82.80;;;;;;4999959;28;20122;-65
2022/07/08 11:27:09;;;;;;;4.03;1.70;;;22.40;87.80;;;;;;5008417;28;20037;-61
2022/07/08 11:29:36;;;;;;;6.50;1.83;;;22.10;83.30;;;;;;5007252;28;20100;-62
2022/07/08 11:32:05;;;;;;;7.32;1.60;;;22.10;90.40;;;;;;5005125;28;20050;-61
2022/07/08 11:34:31;;;;;;;7.65;1.73;;;22.30;87.70;;;;;;5007373;28;20038;-62
2022/07/08 11:37:02;;;;;;;7.18;1.88;;;22.40;84.90;;;;;;5006161;28;20462;-62
2022/07/08 11:39:28;;;;;;;8.00;1.60;;;22.50;88.00;;;;;;5009593;28;20030;-63
2022/07/08 11:41:55;;;;;;;5.03;1.48;;;22.80;82.50;;;;;;5007692;28;20026;-62
2022/07/08 11:44:22;;;;;;;6.82;2.03;;;22.80;86.50;;;;;;5005407;28;20482;-63
2022/07/08 11:46:52;;;;;;;6.50;2.03;;;22.80;81.90;;;;;;5006030;28;20037;-66
2022/07/08 11:49:19;;;;;;;5.68;1.50;;;22.80;85.80;;;;;;5008839;28;20053;-65
2022/07/08 11:51:46;;;;;;;6.75;1.88;;;22.40;83.40;;;;;;5006372;28;20030;-65
2022/07/08 11:54:18;;;;;;;6.72;2.10;;;22.30;88.30;;;;;;5010530;28;20049;-65
2022/07/08 11:56:44;;;;;;;5.18;1.75;;;22.60;86.20;;;;;;5005767;28;20036;-65
2022/07/08 11:59:09;;;;;;;5.95;1.73;;;22.90;82.30;;;;;;5006979;28;20030;-64
2022/07/08 12:01:36;;;;;;;3.30;1.60;;;22.70;77.80;;;;;;5006419;28;20041;-67
2022/07/08 12:04:06;;;;;;;4.65;1.67;;;22.80;81.90;;;;;;5016152;28;20040;-65
2022/07/08 12:06:33;;;;;;;4.35;1.60;;;23.00;84.90;;;;;;5025204;28;20038;-64
2022/07/08 12:09:08;;;;;;;5.40;1.58;;;23.20;81.80;;;;;;5031820;28;20052;-66
2022/07/08 12:11:43;;;;;;;5.72;1.73;;;23.30;80.30;;;;;;5022695;28;20054;-64
2022/07/08 12:14:09;;;;;;;3.28;1.50;;;23.10;76.60;;;;;;5010956;28;20030;-66
2022/07/08 12:16:42;;;;;;;4.45;1.70;;;22.60;81.60;;;;;;5012451;28;20044;-66
2022/07/08 12:19:30;;;;;;;3.40;1.70;;;22.30;83.70;;;;;;5009291;28;20029;-66
2022/07/08 12:22:04;;;;;;;5.07;1.50;;;22.50;79.00;;;;;;5003348;28;20105;-63
2022/07/08 12:24:34;;;;;;;5.90;1.70;;;23.20;86.50;;;;;;5012792;28;20036;-61
2022/07/08 12:27:02;;;;;;;4.03;1.88;;;23.30;80.90;;;;;;5009942;28;20100;-67
2022/07/08 12:29:31;;;;;;;5.85;1.55;;;23.10;86.40;;;;;;5012405;28;20033;-61
2022/07/08 12:31:57;;;;;;;7.63;1.95;;;23.00;84.30;;;;;;5008844;28;20034;-60
2022/07/08 12:34:24;;;;;;;6.35;1.88;;;23.00;89.10;;;;;;5010745;28;20368;-60
2022/07/08 12:36:51;;;;;;;7.85;1.83;;;23.20;81.00;;;;;;5011406;28;20030;-60
2022/07/08 12:39:22;;;;;;;3.50;1.88;;;23.10;87.10;;;;;;5018464;28;20083;-61
2022/07/08 12:41:59;;;;;;;5.55;1.60;;;23.60;81.40;;;;;;5023804;28;20045;-60
2022/07/08 12:45:01;;;;;;;4.43;2.00;;;23.80;78.20;;;;;;5014142;28;20029;-60
2022/07/08 12:47:27;;;;;;;5.30;1.52;;;23.70;75.10;;;;;;5005310;28;20045;-60
2022/07/08 12:49:56;;;;;;;4.35;1.42;;;23.30;76.00;;;;;;5011621;28;20033;-61